x

8570283 - Ocean City Inlet, Md (ocim2) Weather Station

12:42pm - Thu 17th Oct 2019 All times are EDT. -4 hours from GMT.

  • Wind
    18mph, 26mph gusts
  • Sea Temp 64°f
  • Air Temp 58°f
  • Sea Pressure 1003.2mb
  • 8570283 - Ocean City Inlet, Md
  • 8570283 - Ocean City Inlet, Md

More Historic Weather Station data

Upgrade to MSW Pro to gain access to the past 30 days of data for over 8000 Wavebouys and Weather Stations around the globe.

Join

Comparision Forecast

View Surf forecast
   
Thu 10/17 12:42pm 18 26 mph 1003.2mb 64f 58f
12:36pm 22 29 mph 1003.1mb 64f 58f
12:30pm 25 37 mph 1003.1mb 64f 58f
12:24pm 20 25 mph 1003mb 64f 59f
12:18pm 20 29 mph 1003mb 64f 58f
12:12pm 22 32 mph 1003.2mb 64f 58f
12:06pm 26 37 mph 1003.2mb 64f 58f
12:00pm 25 31 mph 1003.2mb 64f 58f
11:42am 17 25 mph 1003.4mb 64f 58f
11:36am 23 38 mph 1003.3mb 64f 57f
11:30am 14 21 mph 1003.3mb 64f 57f
11:24am 17 25 mph 1003.1mb 64f 57f
11:18am 21 29 mph 1003mb 64f 57f
11:12am 21 36 mph 1002.7mb 64f 57f
11:06am 23 36 mph 1002.7mb 64f 57f
11:00am 22 29 mph 1002.7mb 64f 57f
10:42am 24 38 mph 1002.5mb 64f 57f
10:36am 25 37 mph 1002.6mb 64f 57f
10:30am 23 30 mph 1002.5mb 64f 57f
10:24am 15 25 mph 1002.5mb 64f 57f
10:18am 18 29 mph 1002.4mb 64f 57f
10:12am 24 31 mph 1002.3mb 64f 57f
10:06am 23 32 mph 1002.3mb 64f 57f
10:00am 21 30 mph 1002.5mb 64f 57f
9:42am 17 24 mph 1002.6mb 64f 57f
9:36am 23 36 mph 1002.5mb 64f 56f
9:30am 16 24 mph 1002.6mb 64f 56f
9:24am 18 26 mph 1002.5mb 64f 56f
9:18am 20 30 mph 1002.5mb 63f 56f
9:12am 20 28 mph 1002.6mb 64f 56f
9:06am 16 24 mph 1002.6mb 64f 56f
9:00am 22 32 mph 1002.6mb 64f 56f
8:42am 17 25 mph 1002.7mb 63f 55f
8:36am 16 23 mph 1002.8mb 63f 55f
8:30am 14 16 mph 1002.8mb 62f 55f
8:24am 18 26 mph 1002.7mb 62f 55f
8:18am 17 23 mph 1002.7mb 62f 54f
8:12am 15 20 mph 1002.7mb 62f 54f
8:06am 16 23 mph 1002.7mb 62f 55f
8:00am 14 17 mph 1002.7mb 62f 54f
7:42am 11 16 mph 1002.6mb 62f 54f
7:36am 13 16 mph 1002.4mb 62f 54f
7:30am 13 17 mph - - -
7:24am 11 18 mph 1002.3mb 62f 54f
7:18am 16 20 mph 1002.2mb 62f 54f
7:12am 15 20 mph 1002.1mb 62f 54f
7:06am 16 23 mph 1002.1mb 62f 54f
7:00am 17 25 mph 1001.9mb 62f 54f
6:42am 17 24 mph 1001.6mb 62f 53f
6:36am 16 23 mph 1001.5mb 62f 53f
6:30am 11 16 mph 1001.6mb 62f 53f
6:24am 11 18 mph 1001.7mb 62f 53f
6:18am 11 16 mph 1001.7mb 62f 53f
6:12am 11 18 mph 1001.6mb 62f 53f
6:06am 14 17 mph 1001.7mb 62f 53f
6:00am 15 20 mph 1001.8mb 62f 53f
5:42am 16 21 mph 1001.8mb 62f 53f
5:36am 18 26 mph 1001.7mb 62f 53f
5:30am 15 20 mph 1001.6mb - -
5:24am 15 23 mph 1001.6mb 62f 53f
5:18am 17 26 mph 1001.5mb 63f 53f
5:12am 15 22 mph 1001.5mb 63f 53f
5:06am 16 22 mph 1001.5mb 63f 53f
5:00am 14 20 mph 1001.4mb - -
4:42am 14 17 mph 1001.4mb 63f 53f
4:36am 14 18 mph 1001.3mb 63f 53f
4:30am 14 18 mph 1001.3mb 63f 53f
4:24am 14 20 mph 1001.2mb 63f 53f
4:18am 14 21 mph 1001.2mb 63f 53f
4:12am 13 17 mph 1001.2mb 63f 53f
4:06am 14 18 mph 1001.3mb 63f 53f
4:00am 14 18 mph 1001.4mb 63f 53f
3:42am 14 18 mph 1001.2mb 64f 53f
3:36am 14 20 mph 1001.2mb 64f 53f
3:30am 14 18 mph 1001.1mb 64f 53f
3:24am 14 18 mph 1001.2mb 64f 53f
3:18am 14 20 mph 1001.2mb 64f 53f
3:12am 13 17 mph 1001.2mb 64f 53f
3:06am 13 16 mph 1001.3mb 64f 53f
3:00am 13 21 mph 1001.3mb 64f 53f
2:42am 13 20 mph 1001.3mb 64f 53f
2:36am 14 22 mph 1001.2mb 65f 53f
2:30am 14 21 mph 1001.3mb 65f 53f
2:24am 15 21 mph 1001.2mb 65f 53f
2:18am 14 21 mph - - -
2:12am 14 20 mph 1001mb 65f 53f
2:06am 14 20 mph 1001mb 65f 53f
2:00am 15 22 mph 1001mb 65f 53f
1:36am 16 24 mph 1000.7mb 65f 54f
1:30am 17 25 mph 1000.6mb 65f 54f
1:24am 18 33 mph 1000.5mb 65f 54f
1:18am 13 17 mph 1000.7mb 65f 54f
1:12am 17 26 mph 1000.6mb 66f 54f
1:06am 16 21 mph 1000.6mb 66f 54f
1:00am 11 18 mph 1000.6mb 66f 55f
12:42am 18 29 mph 1000.3mb 66f 55f
12:36am 15 24 mph 1000.2mb 66f 55f
12:30am 17 23 mph 1000.2mb 66f 55f
12:24am 14 20 mph 1000.2mb 66f 55f
12:18am 17 23 mph 1000mb 66f 55f
12:12am 17 23 mph 999.8mb 66f 55f
12:06am 20 26 mph 999.8mb 66f 55f
12:00am 18 29 mph 999.8mb 66f 55f
Wed 10/16 11:42pm 14 20 mph 999.7mb 66f 56f
11:36pm 15 21 mph 999.7mb 66f 56f
11:30pm 15 20 mph - - -
11:24pm 22 30 mph 999.5mb 66f 56f
11:18pm 16 28 mph 999.5mb 66f 56f
11:12pm 18 28 mph 999.5mb 66f 56f
11:06pm 21 30 mph 999.5mb 66f 56f
11:00pm 21 29 mph 999.4mb 66f 56f
10:36pm 20 29 mph 998.9mb 66f 56f
10:30pm 22 30 mph 998.8mb 66f 56f
10:24pm 21 29 mph 998.7mb 66f 56f
10:18pm 22 31 mph 998.7mb 66f 57f
10:12pm 18 26 mph 998.6mb 66f 57f
10:06pm 21 34 mph 998.7mb 66f 57f
10:00pm 23 31 mph 998.7mb 66f 57f
9:42pm 20 32 mph 998.4mb 66f 57f
9:36pm 18 24 mph 998.3mb 66f 57f
9:30pm 21 28 mph 998.1mb 66f 58f
9:24pm 22 31 mph 998mb 66f 58f
9:18pm 18 29 mph 998mb 66f 58f
9:12pm 18 26 mph 997.9mb 66f 58f
9:06pm 22 31 mph 997.8mb 66f 59f
9:00pm 22 31 mph 997.7mb 66f 59f
8:42pm 22 37 mph 997.3mb 67f 59f
8:36pm 21 33 mph 997.2mb 67f 59f
8:30pm 20 29 mph 997.2mb 67f 59f
8:24pm 22 29 mph 997.1mb 67f 60f
8:18pm 17 24 mph 997mb 67f 60f
8:12pm 18 24 mph 997mb 67f 60f
8:06pm 20 26 mph 997mb 67f 60f
8:00pm 17 25 mph 997mb 67f 60f
7:42pm 21 29 mph 996.7mb 67f 61f
7:36pm 21 26 mph 996.6mb 67f 61f
7:30pm 17 22 mph 996.5mb 67f 61f
7:24pm 22 31 mph 996.4mb 67f 61f
7:18pm 17 25 mph 996.3mb 67f 61f
6:42pm 23 31 mph 996.1mb 67f 63f
6:36pm 22 30 mph 996.1mb 67f 64f
6:30pm 14 22 mph 995.9mb 67f 65f
6:24pm 16 20 mph 996mb 67f 65f
6:18pm 16 21 mph 996.1mb 67f 65f
6:12pm 16 22 mph 996mb 67f 65f
6:06pm 15 21 mph 996mb 67f 65f
6:00pm 18 23 mph 995.8mb 67f 65f
5:42pm 14 21 mph 996mb 67f 65f
5:36pm 17 24 mph 996.1mb 67f 64f
5:30pm 14 18 mph 996.2mb 67f 65f
5:24pm 17 23 mph 996.3mb 67f 65f
5:18pm 18 24 mph 996.3mb 67f 65f
5:12pm 17 25 mph 996.3mb 67f 66f
5:06pm 9 15 mph 995.9mb 67f 67f
5:00pm 14 17 mph 996.2mb 67f 66f
4:42pm 18 28 mph 996.9mb 67f 66f
4:36pm 17 23 mph 996.8mb 67f 66f
4:30pm 15 21 mph - - -
4:24pm 18 26 mph 997.4mb 67f 66f
4:18pm 20 28 mph 997.7mb 67f 65f
4:12pm 17 24 mph 997.6mb 67f 65f
4:06pm 23 33 mph 997.9mb 67f 65f
4:00pm 23 32 mph 998.1mb 67f 65f
3:42pm 29 38 mph 998.9mb 67f 65f
3:36pm 22 32 mph 999.2mb 67f 65f
3:30pm 22 32 mph 999.5mb 67f 65f
3:24pm 23 36 mph 999.8mb 67f 65f
3:18pm 22 34 mph 1000mb 67f 65f
3:12pm 22 38 mph 1000.2mb 67f 66f
3:06pm 23 39 mph 1000.3mb 67f 67f
3:00pm 25 36 mph 1000.8mb 67f 67f
2:42pm 23 34 mph 1001.6mb 67f 67f
2:36pm 28 37 mph 1002mb 67f 66f
2:30pm 25 36 mph 1002mb 67f 66f
2:24pm 26 36 mph 1002.4mb 67f 66f
2:18pm 22 36 mph 1002.6mb 67f 66f
2:12pm 23 37 mph 1003.1mb 67f 65f
2:06pm 21 32 mph 1003.3mb 67f 66f
2:00pm 23 38 mph 1003.6mb 67f 67f
1:42pm 18 30 mph 1004.2mb 67f 68f
1:36pm 15 23 mph 1004.2mb 67f 69f
1:30pm 18 25 mph 1003.9mb 67f 69f
1:24pm 14 23 mph 1003.7mb 67f 69f
1:18pm 14 21 mph 1003.9mb 67f 69f
1:12pm 14 20 mph 1004.1mb 67f 69f
1:06pm 11 17 mph 1004.1mb 67f 69f
1:00pm 17 23 mph 1004.9mb 67f 69f
12:42pm 16 23 mph 1005.7mb 67f 69f
12:36pm 17 23 mph 1006mb 67f 69f
12:30pm 15 22 mph 1006.2mb 67f -
12:24pm 17 24 mph 1006.5mb 67f 69f
12:18pm 17 25 mph 1006.8mb 67f 69f
12:12pm 17 25 mph 1007.1mb 67f 69f
12:06pm 18 23 mph 1007.2mb 67f 69f
12:00pm 16 23 mph 1007.3mb 67f 69f
11:30am 14 22 mph 1008.2mb - -
11:24am 16 25 mph 1008.6mb 67f 69f
11:18am 16 23 mph 1008.8mb 67f 69f
11:12am 14 22 mph 1008.9mb 67f 69f
11:06am 14 22 mph 1009.1mb 67f 69f
11:00am 16 22 mph 1009.4mb 67f 69f
10:42am 14 20 mph 1009.8mb 67f 69f
10:36am 13 18 mph 1009.9mb 67f 69f
10:30am 10 16 mph 1010mb 67f 69f
10:24am 10 17 mph 1010.1mb 67f 69f
10:18am 11 17 mph 1010.3mb 67f 69f
10:12am 11 17 mph 1010.5mb 67f 68f
10:06am 10 16 mph 1010.7mb 67f 68f
10:00am 10 17 mph 1010.9mb 67f 68f
9:42am 9 16 mph 1011.5mb 67f 68f
9:36am 9 14 mph 1011.6mb 67f 68f
9:30am 9 15 mph 1011.8mb 67f 68f
9:24am 8 14 mph 1011.8mb 67f 68f
9:18am 10 15 mph 1011.9mb 67f 68f
9:12am 9 16 mph 1012mb 67f 68f
9:06am 8 13 mph 1012.2mb 67f 69f
9:00am 7 10 mph 1012.3mb 67f 69f
8:42am 7 11 mph 1012.5mb 67f 68f
8:36am 7 11 mph 1012.6mb 67f 67f
8:30am 7 10 mph 1012.6mb 67f 67f
8:24am 8 11 mph 1012.7mb 67f 67f
8:18am 7 13 mph 1012.9mb 67f 67f
8:12am 9 13 mph 1013.1mb 67f 67f
8:06am 9 14 mph 1012.9mb 66f 67f
8:00am 13 16 mph 1013.3mb 67f 67f
7:42am 9 14 mph 1013.4mb 66f 67f
7:36am 13 16 mph 1013.4mb 66f 67f
7:30am 10 14 mph 1013.2mb 66f 67f
7:24am 8 15 mph 1013.2mb 66f 66f
7:18am 9 14 mph 1013.1mb 66f 66f
7:12am 10 15 mph 1013.1mb 66f 66f
7:06am 9 14 mph 1013.2mb 66f 66f
7:00am 11 15 mph 1013.5mb 66f 66f
6:42am 11 15 mph 1013.9mb 66f 66f
6:36am 11 16 mph 1014mb 66f 66f
6:30am 13 17 mph 1014.1mb 66f 66f
6:24am 13 16 mph 1014.2mb 66f 66f
6:18am 13 16 mph 1014.3mb 66f 66f
6:12am 15 18 mph 1014.3mb 66f 66f
6:06am 14 20 mph 1014.4mb 66f 66f
6:00am 14 18 mph 1014.4mb 66f 66f
5:30am 13 17 mph 1015mb 66f 66f
5:24am 13 16 mph 1015mb 66f 66f
5:18am 13 16 mph 1015mb 66f 66f
5:12am 11 14 mph 1015.2mb 66f 66f
5:06am 11 15 mph 1015.2mb 67f 66f
5:00am 10 14 mph 1015.3mb 67f -
4:42am 10 14 mph 1015.4mb 67f 66f
4:36am 9 13 mph 1015.4mb 67f 66f
4:30am 8 11 mph 1015.4mb 67f 66f
4:24am 10 14 mph 1015.3mb 67f 66f
4:18am 7 10 mph 1015.4mb 67f 66f
4:12am 7 9 mph 1015.5mb 67f 66f
4:06am 8 13 mph 1015.5mb 67f 66f
4:00am 7 10 mph 1015.5mb - -
3:42am 6 11 mph 1015.8mb 67f 66f
3:36am 6 10 mph 1015.9mb 67f 66f
3:30am 6 9 mph 1015.9mb 67f 66f
3:24am 6 13 mph 1015.9mb 67f 66f
3:18am 6 10 mph 1016.1mb 67f 66f
3:12am 6 8 mph 1016.3mb 67f 66f
3:06am 7 9 mph 1016.5mb 67f 66f
3:00am 7 11 mph 1016.6mb 67f 66f
2:42am 7 10 mph 1016.8mb 67f 66f
2:36am 8 10 mph 1016.9mb 67f 66f
2:30am 6 10 mph 1017mb 67f 66f
2:24am 7 11 mph 1017mb 67f 66f
2:18am 6 8 mph 1017.1mb 67f 66f
2:12am 6 8 mph 1017.1mb 67f 66f
2:06am 6 9 mph 1017.3mb 67f 66f
2:00am 5 8 mph - - -
1:36am 6 9 mph 1017.5mb 67f 66f
1:30am 6 7 mph 1017.7mb 67f 66f
1:24am 8 9 mph 1017.7mb 67f 66f
1:18am 8 11 mph 1017.8mb 67f 66f
1:12am 9 11 mph 1017.8mb 67f 66f
1:06am 8 10 mph 1017.8mb 67f 66f
1:00am 8 10 mph 1017.9mb 67f 65f
12:42am 6 8 mph 1017.9mb 67f 65f
12:36am 6 9 mph 1018mb 67f 65f
12:30am 6 10 mph 1018mb - -
12:24am 8 11 mph 1018mb 67f 65f
12:18am 6 9 mph 1018mb 67f 65f
12:12am 7 11 mph 1018.1mb 67f 65f
12:06am 9 13 mph 1018.1mb 67f 65f
12:00am 8 13 mph 1018.3mb 67f 65f
Tue 10/15 11:42pm 7 13 mph 1018.4mb 67f 65f
11:36pm 8 13 mph 1018.4mb 67f 65f
11:30pm 9 14 mph 1018.5mb 67f 64f
11:24pm 9 14 mph 1018.5mb 67f 64f
11:18pm 9 13 mph 1018.6mb 67f 64f
11:12pm 9 13 mph 1018.5mb 67f 64f
11:06pm 8 14 mph 1018.4mb 67f 64f
11:00pm 10 14 mph 1018.4mb 67f 64f
10:36pm 9 13 mph 1018.7mb 67f 64f
10:30pm 10 15 mph 1018.7mb 67f 64f
10:24pm 11 16 mph 1018.7mb 67f 64f
10:18pm 11 15 mph 1018.6mb 67f 64f
10:12pm 10 15 mph 1018.8mb 67f 64f
10:06pm 10 14 mph 1018.9mb 67f 64f
10:00pm 10 15 mph - - -
9:42pm 10 15 mph 1018.8mb 67f 63f
9:36pm 10 16 mph 1018.8mb 67f 64f
9:30pm 11 16 mph 1018.9mb 68f 63f
9:24pm 10 14 mph 1018.9mb 68f 63f
9:18pm 8 13 mph 1018.9mb 68f 64f
9:12pm 8 11 mph 1019mb 68f 63f
9:06pm 8 13 mph 1019mb 68f 63f
9:00pm 7 11 mph - - -
8:42pm 6 10 mph 1019.2mb 68f 63f
8:36pm 7 10 mph 1019.2mb 68f 63f
8:30pm 8 11 mph 1019.3mb 68f 63f
8:24pm 8 11 mph 1019.4mb 68f 63f
8:18pm 7 11 mph 1019.4mb 68f 63f
8:12pm 7 10 mph 1019.6mb 68f 63f
8:06pm 8 11 mph 1019.7mb 68f 63f
8:00pm 7 9 mph 1019.8mb 68f 63f
7:42pm 8 10 mph 1019.9mb 68f 63f
7:36pm 8 11 mph 1019.8mb 68f 63f
7:30pm 8 13 mph 1019.9mb 68f 63f
7:24pm 7 9 mph 1020mb 68f 63f
7:18pm 7 13 mph 1020.1mb 68f 63f
6:42pm 7 11 mph 1019.7mb 68f 63f
6:36pm 6 10 mph 1019.7mb 68f 63f
6:30pm 7 10 mph 1019.7mb 68f 63f
6:24pm 7 10 mph 1019.8mb 68f 63f
6:18pm 6 11 mph 1019.9mb 68f 63f
6:12pm 7 9 mph 1019.8mb 68f 63f
6:06pm 7 11 mph 1019.9mb 68f 63f
6:00pm 6 9 mph 1019.8mb 68f 63f
5:42pm 6 8 mph 1019.7mb 68f 64f
5:36pm 8 11 mph 1019.7mb 68f 64f
5:30pm 7 11 mph 1019.7mb 68f 64f
5:24pm 8 10 mph 1019.7mb 68f 64f
5:18pm 7 11 mph 1019.6mb 68f 65f
5:12pm 7 9 mph 1019.7mb 68f 65f
5:06pm 7 10 mph 1019.8mb 68f 65f
5:00pm 7 11 mph 1019.9mb 68f 65f
4:24pm 8 11 mph 1020.3mb 68f 65f
4:18pm 7 8 mph 1020.3mb 68f 65f
4:12pm 8 11 mph 1020.3mb 68f 65f
4:06pm 8 11 mph 1020.2mb 68f 65f
4:00pm 6 10 mph 1020.3mb 68f 66f
3:42pm 7 10 mph 1020.5mb 68f 66f
3:36pm 6 10 mph 1020.6mb 68f 66f
3:30pm 7 10 mph - - -
3:24pm 8 10 mph 1020.8mb 68f 65f
3:18pm 7 10 mph 1020.8mb 68f 65f
3:12pm 7 10 mph 1020.8mb 68f 65f
3:06pm 8 10 mph 1020.8mb 68f 66f
3:00pm 7 10 mph 1020.9mb 68f 66f
2:42pm 5 8 mph 1021mb 68f 66f
2:36pm 8 11 mph 1020.9mb 68f 66f
2:30pm 8 11 mph 1021mb 67f 65f
2:24pm 5 9 mph 1021mb 67f 66f
2:18pm 7 10 mph 1021mb 67f 66f
2:12pm 7 10 mph 1021mb 67f 66f
2:06pm 7 10 mph 1021mb 67f 66f
2:00pm 6 14 mph 1021.1mb 67f 66f
1:42pm 7 11 mph 1021.2mb 67f 66f
1:36pm 9 14 mph 1021.2mb 67f 65f
1:30pm 6 11 mph 1021.3mb 67f 65f
1:24pm 6 11 mph 1021.3mb 67f 65f
1:18pm 5 9 mph 1021.3mb 67f 65f
1:12pm 5 9 mph 1021.4mb 67f 65f
1:06pm 7 11 mph 1021.4mb 67f 65f
1:00pm 6 11 mph 1021.5mb 67f 65f
12:42pm 6 11 mph 1021.6mb 67f 65f
12:36pm 7 11 mph 1021.7mb 67f 65f
12:30pm 6 9 mph 1021.8mb 67f -
12:24pm 6 11 mph 1021.8mb 67f 65f
12:18pm 7 10 mph 1021.8mb 67f 65f
12:12pm 8 14 mph 1021.8mb 67f 65f
12:06pm 7 13 mph 1021.9mb 67f 65f
12:00pm 6 11 mph 1021.9mb 67f -
11:42am 5 9 mph 1022mb 67f 65f
11:36am 6 11 mph 1022mb 67f 65f
11:30am 6 9 mph 1022mb 67f 65f
11:24am 5 9 mph 1022mb 67f 65f
11:18am 6 10 mph 1022mb 67f 65f
11:12am 5 9 mph 1022.1mb 67f 65f
11:06am 6 10 mph 1022.2mb 67f 65f
11:00am 7 11 mph 1022.1mb 67f 65f
10:42am 3 8 mph 1022.3mb 67f 65f
10:36am 5 9 mph 1022.3mb 67f 65f
10:30am 7 11 mph 1022.3mb 67f 65f
10:24am 6 9 mph 1022.4mb 67f 65f
10:18am 6 10 mph 1022.3mb 67f 65f
10:12am 7 13 mph 1022.3mb 67f 64f
10:06am 8 10 mph 1022.3mb 67f 64f
10:00am 7 9 mph - - -
9:42am 8 10 mph 1022.3mb 67f 63f
9:36am 8 10 mph 1022.3mb 67f 63f
9:30am 8 10 mph 1022.2mb 67f 63f
9:24am 8 10 mph 1022.2mb 67f 63f
9:18am 7 9 mph 1022.2mb 67f 63f
9:12am 8 9 mph 1022.1mb 67f 62f
9:06am 7 8 mph 1022.1mb 67f 62f
9:00am 7 8 mph 1022mb 67f 62f
8:42am 8 10 mph 1021.8mb 66f 62f
8:36am 9 10 mph 1021.8mb 66f 61f
8:30am 7 9 mph 1021.7mb 66f 61f
8:24am 8 10 mph 1021.6mb 66f 61f
8:18am 6 8 mph 1021.6mb 66f 61f
8:12am 7 8 mph 1021.5mb 66f 60f
8:06am 7 8 mph 1021.5mb 66f 60f
8:00am 6 7 mph 1021.5mb 66f 60f
7:42am 3 5 mph 1021.3mb 66f 59f
7:36am 3 6 mph 1021.3mb 66f 59f
7:30am 5 6 mph 1021.2mb 66f 59f
7:24am 6 6 mph 1021.2mb 66f 60f
7:18am 5 6 mph 1021.1mb 66f 60f
7:12am 6 6 mph 1021mb 66f 60f
7:06am 6 7 mph 1021mb 66f 61f
7:00am 5 6 mph 1020.9mb 66f 60f
6:42am 6 6 mph 1020.9mb 66f 60f
6:36am 5 6 mph 1020.8mb 66f 60f
6:30am 5 6 mph 1020.8mb 66f 60f
6:24am 5 6 mph 1020.7mb 66f 60f
6:18am 5 6 mph 1020.6mb 66f 60f
6:12am 6 7 mph 1020.5mb 66f 60f
6:06am 6 8 mph 1020.3mb 66f 60f
6:00am 7 9 mph 1020.3mb 66f 60f
5:42am 7 9 mph 1020.1mb 66f 60f
5:36am 7 8 mph 1020mb 66f 60f
5:30am 6 7 mph 1020.1mb 66f 59f
5:24am 6 8 mph 1020mb 66f 60f
5:18am 6 7 mph 1020mb 66f 60f
5:12am 6 7 mph 1020mb 66f 60f
5:06am 6 7 mph 1020mb 66f 60f
5:00am 7 8 mph 1019.9mb 66f 60f
4:42am 7 8 mph 1019.7mb 66f 59f
4:36am 6 10 mph 1019.7mb 66f 59f
4:30am 8 10 mph 1019.7mb 66f 58f
4:24am 8 10 mph 1019.7mb 66f 58f
4:18am 9 10 mph 1019.7mb 66f 58f
4:12am 7 8 mph 1019.8mb 66f 58f
4:06am 6 7 mph 1019.8mb 66f 58f
4:00am 7 8 mph 1019.8mb 67f 58f
3:42am 8 10 mph 1019.9mb 67f 59f
3:36am 7 8 mph 1019.9mb 67f 59f
3:30am 7 9 mph 1019.8mb 67f 59f
3:24am 8 9 mph 1019.8mb 67f 58f
3:18am 9 11 mph 1019.8mb 67f 59f
3:12am 10 13 mph 1019.8mb 67f 58f
3:06am 10 14 mph 1019.7mb 67f 59f
3:00am 9 13 mph 1019.6mb 67f 59f
2:42am 5 6 mph 1019.6mb 67f 60f
2:36am 5 7 mph 1019.7mb 67f 60f
2:30am 7 9 mph 1019.6mb 67f 60f
2:24am 6 7 mph 1019.5mb 67f 61f
2:18am 5 6 mph 1019.2mb 67f 62f
2:12am 5 7 mph 1019.1mb 67f 62f
2:06am 5 7 mph 1019.1mb 67f 62f
2:00am 3 3 mph 1019.1mb 67f 61f
1:36am 5 6 mph 1019mb 67f 62f
1:30am 5 6 mph 1018.9mb 67f 62f
1:24am 6 6 mph 1018.8mb 67f 62f
1:18am 6 7 mph 1018.7mb 67f 62f
1:12am 6 7 mph 1018.7mb 67f 62f
1:06am 6 8 mph 1018.7mb 67f 62f
1:00am 7 9 mph 1018.7mb 67f 63f
12:42am 5 6 mph 1018.7mb 67f 62f
12:36am 3 5 mph 1018.7mb 67f 62f
12:30am 3 3 mph 1018.6mb 67f 62f
12:24am 3 5 mph 1018.6mb 67f 62f
12:18am 3 3 mph 1018.5mb 67f 62f
12:12am 2 2 mph 1018.5mb 67f 63f
12:06am 2 3 mph 1018.5mb 67f 63f
12:00am 2 3 mph 1018.5mb 67f 63f
Mon 10/14 11:42pm 3 5 mph 1018.4mb 67f 63f
11:36pm 3 5 mph 1018.3mb 67f 63f
11:30pm 2 3 mph - - -
11:24pm 3 5 mph 1018.3mb 67f 63f
11:18pm 5 5 mph 1018.4mb 67f 63f
11:12pm 5 6 mph 1018.4mb 67f 63f
11:06pm 5 6 mph 1018.4mb 67f 63f
11:00pm 5 6 mph 1018.5mb 67f 63f
10:42pm 5 6 mph 1018.5mb 67f 62f
10:36pm 6 6 mph 1018.4mb 67f 62f
10:30pm 5 5 mph 1018.4mb 67f -
10:24pm 5 7 mph 1018.5mb 67f 62f
10:18pm 6 7 mph 1018.5mb 67f 62f
10:12pm 6 7 mph 1018.4mb 67f 61f
10:06pm 5 6 mph 1018.4mb 67f 61f
10:00pm 6 6 mph 1018.3mb 67f 62f
9:30pm 6 8 mph 1018.2mb 67f 62f
9:24pm 5 7 mph 1018.1mb 67f 62f
9:18pm 5 7 mph 1018mb 67f 62f
9:12pm 6 7 mph 1018mb 67f 62f
9:06pm 6 7 mph 1017.9mb 67f 62f
9:00pm 6 8 mph 1017.9mb 67f 63f
8:42pm 5 6 mph 1017.7mb 67f 64f
8:36pm 5 6 mph 1017.6mb 67f 64f
8:30pm 5 6 mph 1017.6mb 67f 65f
8:24pm 5 6 mph 1017.5mb 67f 65f
8:18pm 5 6 mph 1017.5mb 67f 65f
8:12pm 5 6 mph 1017.4mb 67f 65f
8:06pm 5 6 mph 1017.3mb 67f 65f
8:00pm 5 5 mph 1017.3mb 67f 66f
7:42pm 3 5 mph 1016.9mb 67f 66f
7:36pm 5 5 mph 1016.8mb 67f 66f
7:30pm 6 7 mph 1016.7mb 67f 66f
7:24pm 6 6 mph 1016.7mb 67f 66f
7:18pm 6 8 mph 1016.7mb 67f 66f
6:42pm 8 10 mph 1016.4mb 67f 67f
6:36pm 9 11 mph 1016.4mb 67f 67f
6:30pm 14 16 mph 1016.4mb 67f 68f
6:24pm 14 15 mph 1016.4mb 67f 68f
6:18pm 13 16 mph 1016.4mb 67f 68f
6:12pm 11 15 mph 1016.4mb 67f 68f
6:06pm 13 15 mph 1016.2mb 67f 68f
6:00pm 14 16 mph 1016.1mb - -
5:42pm 15 17 mph 1016mb 67f 68f
5:36pm 16 17 mph 1015.9mb 67f 68f
5:30pm 9 14 mph 1015.9mb 67f 69f
5:24pm 9 11 mph 1015.8mb 67f 69f
5:18pm 9 13 mph 1015.7mb 67f 69f
5:12pm 9 13 mph 1015.6mb 67f 69f
5:06pm 10 14 mph 1015.4mb 67f 69f
5:00pm 8 11 mph 1015.3mb 67f 68f
4:48pm 8 13 mph - - -
4:36pm 9 11 mph 1015.3mb 67f 68f
4:30pm 8 15 mph 1015.3mb 67f 69f
4:24pm 7 10 mph 1015.4mb 67f 68f
4:18pm 9 14 mph 1015.4mb 67f 68f
4:12pm 7 9 mph 1015.4mb 67f 69f
4:06pm 7 10 mph 1015.4mb 67f 68f
4:00pm 10 13 mph 1015.4mb 67f 68f
3:42pm 8 11 mph 1015.5mb 67f 69f
3:36pm 7 10 mph 1015.6mb 67f 69f
3:30pm 7 10 mph 1015.7mb 67f 69f
3:24pm 8 11 mph 1015.7mb 67f 69f
3:18pm 8 11 mph 1015.8mb 67f 69f
3:12pm 9 11 mph 1015.9mb 67f 68f
3:06pm 7 9 mph 1015.9mb 67f 69f
3:00pm 8 11 mph 1016mb 67f 69f
2:42pm 6 9 mph 1015.9mb 67f 72f
2:36pm 6 9 mph 1016mb 67f 71f
2:30pm 6 8 mph 1016mb 67f 72f
2:24pm 6 8 mph 1016.1mb 67f 71f
2:18pm 6 13 mph 1016.2mb 67f 71f
2:12pm 7 10 mph 1016.2mb 67f 71f
2:06pm 8 11 mph 1016.2mb 67f 70f
2:00pm 7 9 mph 1016.3mb 67f -
1:24pm 8 10 mph 1016.5mb 67f 69f
1:18pm 10 13 mph 1016.6mb 67f 69f
1:12pm 7 9 mph 1016.6mb 67f 68f
1:06pm 8 14 mph 1016.6mb 67f 69f
1:00pm 10 13 mph 1016.7mb 67f 68f
12:42pm 7 9 mph 1016.8mb 67f 67f
12:36pm 8 10 mph 1016.9mb 67f 67f
12:30pm 11 15 mph 1016.9mb 67f 67f
12:24pm 10 14 mph 1017mb 67f 67f
12:18pm 8 9 mph 1017.1mb 67f 66f
12:12pm 9 13 mph 1017.1mb 67f 65f
12:06pm 9 13 mph 1017.1mb 67f 65f
12:00pm 6 10 mph 1017.3mb 66f 64f
11:42am 7 8 mph 1017.5mb 66f 64f
11:36am 6 7 mph 1017.6mb 66f 64f
11:30am 7 9 mph 1017.7mb 66f 63f
11:24am 6 8 mph 1017.8mb 66f 63f
11:18am 6 7 mph 1017.9mb 66f 63f
11:12am 6 8 mph 1018.1mb 66f 62f
11:06am 7 8 mph 1018.1mb 66f 62f
11:00am 6 8 mph 1018.1mb 66f 62f
10:48am 7 9 mph - - -
10:36am 8 10 mph 1018.1mb 66f 62f
10:30am 10 13 mph 1018.1mb 66f 62f
10:24am 10 13 mph 1018mb 66f 62f
10:18am 13 15 mph 1017.9mb 66f 62f
10:12am 9 13 mph 1017.9mb 66f 62f
10:06am 9 10 mph 1018mb 66f 62f
10:00am 9 11 mph 1017.9mb 66f 62f
9:42am 11 14 mph 1017.7mb 66f 62f
9:36am 11 15 mph 1017.7mb 66f 63f
9:30am 11 15 mph 1017.6mb 66f 63f
9:24am 10 14 mph 1017.6mb 66f 63f
9:18am 9 13 mph 1017.7mb 66f 63f
9:12am 11 14 mph 1017.6mb 66f 63f
9:06am 10 14 mph 1017.5mb 66f 63f
9:00am 8 10 mph 1017.4mb 66f 63f
8:42am 6 8 mph 1017.2mb 66f 63f
8:36am 6 7 mph 1017.1mb 66f 63f
8:30am 7 8 mph 1017.1mb 66f 63f
8:24am 7 10 mph 1016.9mb 66f 63f
8:18am 6 7 mph 1016.9mb 66f 63f
8:12am 5 6 mph 1017mb 66f 64f
8:06am 5 5 mph 1017mb 66f 64f
8:00am 2 3 mph 1016.8mb 66f 64f
7:42am 1 1 mph 1016.5mb 66f 63f
7:36am 1 2 mph 1016.5mb 66f 63f
7:30am 2 3 mph 1016.4mb 66f 64f
7:24am 3 5 mph 1016.3mb 66f 64f
7:18am 5 6 mph 1016.2mb 66f 64f
7:12am 3 5 mph 1016.1mb 66f 64f
7:06am 3 5 mph 1016.1mb 66f 64f
7:00am 6 6 mph - - -
6:42am 6 7 mph 1015.7mb 65f 64f
6:36am 6 7 mph 1015.7mb 65f 64f
6:30am 7 8 mph 1015.7mb 65f 63f
6:24am 7 8 mph 1015.6mb 65f 63f
6:18am 6 7 mph 1015.6mb 65f 64f
6:12am 7 8 mph 1015.5mb 65f 64f
6:06am 7 8 mph 1015.5mb 65f 64f
6:00am 7 9 mph 1015.4mb 65f 64f
5:42am 9 11 mph 1015.3mb 65f 65f
5:36am 8 10 mph 1015.2mb 65f 65f
5:30am 9 10 mph 1015.2mb 65f 65f
5:24am 8 10 mph 1015.2mb 65f 65f
5:18am 3 5 mph 1015.1mb 65f 66f
5:12am 3 5 mph 1015.1mb 65f 66f
5:06am 3 5 mph 1015.2mb 65f 66f
5:00am 3 5 mph 1015.2mb 65f 66f
4:42am 6 7 mph 1015.1mb 65f 66f
4:36am 6 6 mph 1015.1mb 65f 66f
4:30am 6 7 mph 1015mb 65f 66f
4:24am 6 7 mph 1014.9mb 65f 66f
4:18am 7 9 mph 1014.8mb 65f 66f
4:12am 8 10 mph 1014.9mb 65f 66f
4:06am 7 8 mph 1014.7mb 66f 66f
4:00am 7 9 mph 1014.7mb - -
3:42am 6 7 mph 1014.7mb 66f 66f
3:36am 6 7 mph 1014.7mb 66f 66f
3:30am 6 8 mph 1014.8mb - -
3:24am 8 9 mph 1014.8mb 66f 66f
3:18am 9 10 mph 1014.8mb 66f 66f
3:12am 9 10 mph 1014.9mb 66f 66f
3:06am 9 11 mph 1015mb 66f 66f
3:00am 7 9 mph 1014.9mb - -
2:42am 6 8 mph 1015.3mb 66f 66f
2:36am 7 9 mph 1015.3mb 66f 66f
2:30am 9 13 mph 1015.4mb 67f 66f
2:24am 9 13 mph 1015.4mb 67f 66f
2:18am 8 10 mph 1015.5mb 67f 67f
2:12am 8 9 mph 1015.5mb 67f 67f
2:06am 9 10 mph 1015.5mb 67f 67f
2:00am 9 11 mph 1015.6mb 67f 67f
1:36am 8 10 mph 1015.7mb 67f 67f
1:30am 8 9 mph 1015.9mb 67f 67f
1:24am 8 10 mph 1015.9mb 67f 67f
1:18am 8 9 mph 1016mb 67f 67f
1:12am 8 11 mph 1016.1mb 67f 67f
1:06am 8 10 mph 1016.2mb 67f 67f
1:00am 8 13 mph 1016mb 67f 67f
12:42am 7 9 mph 1016mb 67f 67f
12:36am 8 9 mph 1016.1mb 67f 67f
12:30am 8 10 mph 1016.2mb 67f 67f
12:24am 8 8 mph 1016.3mb 67f 67f
12:18am 7 8 mph 1016.3mb 67f 67f
12:12am 8 11 mph 1016.3mb 67f 67f
12:06am 9 11 mph 1016.5mb 67f 67f
12:00am 10 14 mph 1016.5mb 67f 67f
Sun 10/13 11:42pm 8 10 mph 1016.7mb 67f 67f
11:36pm 8 10 mph 1016.7mb 67f 67f
11:30pm 9 11 mph 1016.7mb 67f 67f
11:24pm 9 11 mph 1016.6mb 67f 67f
11:18pm 11 15 mph 1016.5mb 67f 67f
11:12pm 10 14 mph 1016.6mb 66f 67f
11:06pm 9 10 mph 1016.6mb 66f 67f
11:00pm 9 10 mph 1016.5mb 66f 67f
10:42pm 11 15 mph 1016.5mb 66f 67f
10:36pm 13 15 mph 1016.5mb 66f 67f
10:30pm 11 14 mph 1016.5mb 66f 67f
10:24pm 10 13 mph 1016.6mb 66f 67f
10:18pm 10 11 mph 1016.7mb 66f 67f
10:12pm 8 10 mph 1016.8mb 66f 67f
10:06pm 8 11 mph 1016.9mb 66f 67f
10:00pm 9 11 mph 1017.2mb 66f 67f
9:30pm 7 10 mph 1016.9mb 66f 67f
9:24pm 7 10 mph 1016.9mb 66f 67f
9:18pm 6 9 mph 1017mb 66f 67f
9:12pm 6 8 mph 1017.1mb 66f 67f
9:06pm 9 11 mph 1017mb 66f 66f
9:00pm 7 9 mph 1017.1mb 66f 67f
8:42pm 2 5 mph 1017.8mb 66f 67f
8:36pm 3 5 mph 1017.5mb 66f 67f
8:30pm 3 6 mph 1017.4mb 66f 67f
8:24pm 5 7 mph 1017.1mb 66f 67f
8:18pm 5 6 mph 1017.2mb 66f 67f
8:12pm 6 8 mph 1017.2mb 66f 67f
8:06pm 6 8 mph 1017.3mb 66f 66f
8:00pm 6 7 mph 1017.3mb 66f 66f
7:42pm 5 7 mph 1017.1mb 66f 66f
7:36pm 5 7 mph 1017.2mb 66f 66f
7:30pm 5 7 mph 1017.2mb 66f 66f
7:24pm 7 9 mph 1017.2mb 66f 66f
7:18pm 6 7 mph 1017.1mb 66f 66f
6:42pm 6 8 mph 1017.5mb 65f 66f
6:36pm 7 9 mph 1017.5mb 65f 66f
6:30pm 7 9 mph 1017.4mb 65f 65f